sensor_id;sensor_type;location;lat;lon;timestamp;P1;durP1;ratioP1;P2;durP2;ratioP2
41661;SDS011;27351;45.992;12.666;2022-09-03T00:00:20;3.60;;;1.95;;
41661;SDS011;27351;45.992;12.666;2022-09-03T00:02:56;3.65;;;1.95;;
41661;SDS011;27351;45.992;12.666;2022-09-03T00:10:56;4.20;;;1.80;;
41661;SDS011;27351;45.992;12.666;2022-09-03T00:13:24;3.47;;;1.70;;
41661;SDS011;27351;45.992;12.666;2022-09-03T00:15:56;4.63;;;1.90;;
41661;SDS011;27351;45.992;12.666;2022-09-03T00:18:23;3.83;;;2.10;;
41661;SDS011;27351;45.992;12.666;2022-09-03T00:20:51;4.13;;;1.90;;
41661;SDS011;27351;45.992;12.666;2022-09-03T00:23:21;3.30;;;1.67;;
41661;SDS011;27351;45.992;12.666;2022-09-03T00:28:22;3.78;;;1.85;;
41661;SDS011;27351;45.992;12.666;2022-09-03T00:30:50;3.28;;;1.58;;
41661;SDS011;27351;45.992;12.666;2022-09-03T00:33:20;3.17;;;2.10;;
41661;SDS011;27351;45.992;12.666;2022-09-03T00:35:51;3.92;;;1.90;;
41661;SDS011;27351;45.992;12.666;2022-09-03T00:38:19;2.88;;;1.85;;
41661;SDS011;27351;45.992;12.666;2022-09-03T00:43:21;6.32;;;2.00;;
41661;SDS011;27351;45.992;12.666;2022-09-03T00:48:26;3.67;;;2.10;;
41661;SDS011;27351;45.992;12.666;2022-09-03T00:53:50;5.57;;;2.00;;
41661;SDS011;27351;45.992;12.666;2022-09-03T00:56:22;4.57;;;2.03;;
41661;SDS011;27351;45.992;12.666;2022-09-03T01:14:02;5.47;;;2.00;;
41661;SDS011;27351;45.992;12.666;2022-09-03T01:16:52;5.03;;;2.50;;
41661;SDS011;27351;45.992;12.666;2022-09-03T01:32:27;4.55;;;1.85;;
41661;SDS011;27351;45.992;12.666;2022-09-03T01:35:08;5.05;;;1.90;;
41661;SDS011;27351;45.992;12.666;2022-09-03T01:37:55;3.95;;;2.30;;
41661;SDS011;27351;45.992;12.666;2022-09-03T01:40:27;4.18;;;1.80;;
41661;SDS011;27351;45.992;12.666;2022-09-03T01:45:28;4.82;;;2.17;;
41661;SDS011;27351;45.992;12.666;2022-09-03T01:58:41;3.45;;;1.90;;
41661;SDS011;27351;45.992;12.666;2022-09-03T02:01:22;3.97;;;2.13;;
41661;SDS011;27351;45.992;12.666;2022-09-03T02:03:49;6.33;;;2.30;;
41661;SDS011;27351;45.992;12.666;2022-09-03T02:06:15;4.38;;;2.20;;
41661;SDS011;27351;45.992;12.666;2022-09-03T02:08:45;4.85;;;2.10;;
41661;SDS011;27351;45.992;12.666;2022-09-03T02:11:10;3.20;;;2.30;;
41661;SDS011;27351;45.992;12.666;2022-09-03T02:13:37;3.50;;;2.13;;
41661;SDS011;27351;45.992;12.666;2022-09-03T02:16:14;4.45;;;1.95;;
41661;SDS011;27351;45.992;12.666;2022-09-03T02:18:41;3.72;;;2.50;;
41661;SDS011;27351;45.992;12.666;2022-09-03T02:21:08;5.30;;;2.58;;
41661;SDS011;27351;45.992;12.666;2022-09-03T02:23:34;7.82;;;2.50;;
41661;SDS011;27351;45.992;12.666;2022-09-03T02:26:03;5.00;;;2.37;;
41661;SDS011;27351;45.992;12.666;2022-09-03T02:28:29;5.73;;;2.43;;
41661;SDS011;27351;45.992;12.666;2022-09-03T02:30:56;6.05;;;2.40;;
41661;SDS011;27351;45.992;12.666;2022-09-03T02:33:22;5.25;;;2.60;;
41661;SDS011;27351;45.992;12.666;2022-09-03T02:35:48;6.03;;;2.80;;
41661;SDS011;27351;45.992;12.666;2022-09-03T02:38:18;7.10;;;2.40;;
41661;SDS011;27351;45.992;12.666;2022-09-03T02:40:44;6.20;;;2.78;;
41661;SDS011;27351;45.992;12.666;2022-09-03T02:43:21;4.18;;;2.40;;
41661;SDS011;27351;45.992;12.666;2022-09-03T02:45:49;4.93;;;2.55;;
41661;SDS011;27351;45.992;12.666;2022-09-03T02:48:16;3.70;;;2.60;;
41661;SDS011;27351;45.992;12.666;2022-09-03T02:50:43;4.65;;;2.63;;
41661;SDS011;27351;45.992;12.666;2022-09-03T02:53:09;8.77;;;2.87;;
41661;SDS011;27351;45.992;12.666;2022-09-03T02:55:35;3.58;;;2.10;;
41661;SDS011;27351;45.992;12.666;2022-09-03T02:58:00;5.90;;;2.50;;
41661;SDS011;27351;45.992;12.666;2022-09-03T03:00:26;4.37;;;2.40;;
41661;SDS011;27351;45.992;12.666;2022-09-03T03:02:55;5.45;;;2.20;;
41661;SDS011;27351;45.992;12.666;2022-09-03T03:05:23;5.43;;;2.15;;
41661;SDS011;27351;45.992;12.666;2022-09-03T03:07:51;3.60;;;2.22;;
41661;SDS011;27351;45.992;12.666;2022-09-03T03:10:17;3.87;;;2.00;;
41661;SDS011;27351;45.992;12.666;2022-09-03T03:12:43;4.83;;;2.33;;
41661;SDS011;27351;45.992;12.666;2022-09-03T03:15:08;3.63;;;2.00;;
41661;SDS011;27351;45.992;12.666;2022-09-03T03:17:34;3.75;;;2.08;;
41661;SDS011;27351;45.992;12.666;2022-09-03T03:20:00;4.20;;;2.33;;
41661;SDS011;27351;45.992;12.666;2022-09-03T03:22:25;5.00;;;2.22;;
41661;SDS011;27351;45.992;12.666;2022-09-03T03:24:51;5.47;;;2.60;;
41661;SDS011;27351;45.992;12.666;2022-09-03T03:27:17;4.50;;;2.43;;
41661;SDS011;27351;45.992;12.666;2022-09-03T03:29:43;4.18;;;2.15;;
41661;SDS011;27351;45.992;12.666;2022-09-03T03:32:08;5.47;;;2.30;;
41661;SDS011;27351;45.992;12.666;2022-09-03T03:34:34;4.70;;;2.10;;
41661;SDS011;27351;45.992;12.666;2022-09-03T03:37:00;4.23;;;2.27;;
41661;SDS011;27351;45.992;12.666;2022-09-03T03:39:25;5.27;;;2.33;;
41661;SDS011;27351;45.992;12.666;2022-09-03T03:41:51;3.13;;;2.05;;
41661;SDS011;27351;45.992;12.666;2022-09-03T03:44:16;5.45;;;2.17;;
41661;SDS011;27351;45.992;12.666;2022-09-03T03:46:44;4.03;;;2.40;;
41661;SDS011;27351;45.992;12.666;2022-09-03T03:49:10;3.50;;;1.92;;
41661;SDS011;27351;45.992;12.666;2022-09-03T03:51:36;4.87;;;2.13;;
41661;SDS011;27351;45.992;12.666;2022-09-03T03:54:03;6.80;;;2.03;;
41661;SDS011;27351;45.992;12.666;2022-09-03T03:56:29;3.45;;;2.15;;
41661;SDS011;27351;45.992;12.666;2022-09-03T03:58:55;3.70;;;2.33;;
41661;SDS011;27351;45.992;12.666;2022-09-03T04:01:21;3.87;;;2.20;;
41661;SDS011;27351;45.992;12.666;2022-09-03T04:03:47;4.68;;;2.28;;
41661;SDS011;27351;45.992;12.666;2022-09-03T04:06:14;4.15;;;2.30;;
41661;SDS011;27351;45.992;12.666;2022-09-03T04:08:41;3.50;;;2.30;;
41661;SDS011;27351;45.992;12.666;2022-09-03T04:11:08;3.38;;;2.20;;
41661;SDS011;27351;45.992;12.666;2022-09-03T04:13:35;5.32;;;2.10;;
41661;SDS011;27351;45.992;12.666;2022-09-03T04:18:27;3.35;;;2.05;;
41661;SDS011;27351;45.992;12.666;2022-09-03T04:20:52;3.45;;;2.40;;
41661;SDS011;27351;45.992;12.666;2022-09-03T04:23:19;4.93;;;2.50;;
41661;SDS011;27351;45.992;12.666;2022-09-03T04:25:50;4.23;;;2.70;;
41661;SDS011;27351;45.992;12.666;2022-09-03T04:28:16;4.03;;;2.22;;
41661;SDS011;27351;45.992;12.666;2022-09-03T04:30:42;4.80;;;2.27;;
41661;SDS011;27351;45.992;12.666;2022-09-03T04:33:07;4.45;;;2.50;;
41661;SDS011;27351;45.992;12.666;2022-09-03T04:35:33;4.95;;;2.60;;
41661;SDS011;27351;45.992;12.666;2022-09-03T04:37:58;4.32;;;2.60;;
41661;SDS011;27351;45.992;12.666;2022-09-03T04:40:24;6.07;;;2.70;;
41661;SDS011;27351;45.992;12.666;2022-09-03T04:42:50;4.77;;;2.47;;
41661;SDS011;27351;45.992;12.666;2022-09-03T04:45:16;4.25;;;2.10;;
41661;SDS011;27351;45.992;12.666;2022-09-03T04:47:44;3.60;;;2.20;;
41661;SDS011;27351;45.992;12.666;2022-09-03T04:50:11;4.95;;;2.28;;
41661;SDS011;27351;45.992;12.666;2022-09-03T04:52:37;3.72;;;2.20;;
41661;SDS011;27351;45.992;12.666;2022-09-03T04:55:03;5.47;;;2.22;;
41661;SDS011;27351;45.992;12.666;2022-09-03T04:57:29;8.18;;;2.40;;
41661;SDS011;27351;45.992;12.666;2022-09-03T04:59:59;5.70;;;2.17;;
41661;SDS011;27351;45.992;12.666;2022-09-03T05:02:24;4.35;;;2.30;;
41661;SDS011;27351;45.992;12.666;2022-09-03T05:04:50;5.33;;;2.40;;
41661;SDS011;27351;45.992;12.666;2022-09-03T05:07:17;4.60;;;2.40;;
41661;SDS011;27351;45.992;12.666;2022-09-03T05:09:54;4.07;;;2.20;;
41661;SDS011;27351;45.992;12.666;2022-09-03T05:12:20;3.40;;;2.20;;
41661;SDS011;27351;45.992;12.666;2022-09-03T05:14:46;6.43;;;2.28;;
41661;SDS011;27351;45.992;12.666;2022-09-03T05:17:12;3.75;;;2.20;;
41661;SDS011;27351;45.992;12.666;2022-09-03T05:19:38;5.95;;;2.65;;
41661;SDS011;27351;45.992;12.666;2022-09-03T05:22:03;3.97;;;2.30;;
41661;SDS011;27351;45.992;12.666;2022-09-03T05:24:29;4.47;;;2.30;;
41661;SDS011;27351;45.992;12.666;2022-09-03T05:26:54;5.50;;;2.72;;
41661;SDS011;27351;45.992;12.666;2022-09-03T05:29:20;5.75;;;2.67;;
41661;SDS011;27351;45.992;12.666;2022-09-03T05:31:46;5.82;;;2.30;;
41661;SDS011;27351;45.992;12.666;2022-09-03T05:34:12;4.32;;;2.67;;
41661;SDS011;27351;45.992;12.666;2022-09-03T05:36:37;5.67;;;2.60;;
41661;SDS011;27351;45.992;12.666;2022-09-03T05:39:03;4.60;;;2.50;;
41661;SDS011;27351;45.992;12.666;2022-09-03T05:41:29;5.15;;;2.60;;
41661;SDS011;27351;45.992;12.666;2022-09-03T05:43:57;7.85;;;2.42;;
41661;SDS011;27351;45.992;12.666;2022-09-03T05:46:27;5.63;;;2.40;;
41661;SDS011;27351;45.992;12.666;2022-09-03T05:48:59;5.32;;;2.70;;
41661;SDS011;27351;45.992;12.666;2022-09-03T05:51:26;4.38;;;2.58;;
41661;SDS011;27351;45.992;12.666;2022-09-03T05:53:52;5.40;;;2.70;;
41661;SDS011;27351;45.992;12.666;2022-09-03T05:56:19;4.03;;;2.50;;
41661;SDS011;27351;45.992;12.666;2022-09-03T05:58:46;4.60;;;2.40;;
41661;SDS011;27351;45.992;12.666;2022-09-03T06:01:17;3.90;;;2.20;;
41661;SDS011;27351;45.992;12.666;2022-09-03T06:03:44;6.28;;;2.88;;
41661;SDS011;27351;45.992;12.666;2022-09-03T06:06:10;7.10;;;3.00;;
41661;SDS011;27351;45.992;12.666;2022-09-03T06:08:36;5.50;;;2.87;;
41661;SDS011;27351;45.992;12.666;2022-09-03T06:11:04;5.10;;;2.78;;
41661;SDS011;27351;45.992;12.666;2022-09-03T06:13:30;4.07;;;2.80;;
41661;SDS011;27351;45.992;12.666;2022-09-03T06:16:01;5.20;;;2.92;;
41661;SDS011;27351;45.992;12.666;2022-09-03T06:18:27;5.25;;;2.70;;
41661;SDS011;27351;45.992;12.666;2022-09-03T06:20:54;6.40;;;2.70;;
41661;SDS011;27351;45.992;12.666;2022-09-03T06:23:20;5.53;;;2.65;;
41661;SDS011;27351;45.992;12.666;2022-09-03T06:25:46;6.37;;;2.90;;
41661;SDS011;27351;45.992;12.666;2022-09-03T06:28:12;4.00;;;2.50;;
41661;SDS011;27351;45.992;12.666;2022-09-03T06:30:37;3.90;;;2.40;;
41661;SDS011;27351;45.992;12.666;2022-09-03T06:33:03;4.72;;;2.42;;
41661;SDS011;27351;45.992;12.666;2022-09-03T06:35:29;5.43;;;2.50;;
41661;SDS011;27351;45.992;12.666;2022-09-03T06:37:55;4.63;;;2.13;;
41661;SDS011;27351;45.992;12.666;2022-09-03T06:40:21;3.73;;;2.37;;
41661;SDS011;27351;45.992;12.666;2022-09-03T06:42:56;4.15;;;2.60;;
41661;SDS011;27351;45.992;12.666;2022-09-03T06:45:28;4.53;;;2.20;;
41661;SDS011;27351;45.992;12.666;2022-09-03T06:47:54;5.38;;;2.22;;
41661;SDS011;27351;45.992;12.666;2022-09-03T06:50:20;4.00;;;2.60;;
41661;SDS011;27351;45.992;12.666;2022-09-03T06:52:50;4.15;;;2.45;;
41661;SDS011;27351;45.992;12.666;2022-09-03T06:55:15;4.95;;;2.60;;
41661;SDS011;27351;45.992;12.666;2022-09-03T06:57:41;4.87;;;2.40;;
41661;SDS011;27351;45.992;12.666;2022-09-03T07:00:07;5.40;;;2.57;;
41661;SDS011;27351;45.992;12.666;2022-09-03T07:02:33;4.53;;;2.45;;
41661;SDS011;27351;45.992;12.666;2022-09-03T07:04:58;4.87;;;2.73;;
41661;SDS011;27351;45.992;12.666;2022-09-03T07:07:24;5.43;;;2.70;;
41661;SDS011;27351;45.992;12.666;2022-09-03T07:09:50;4.70;;;2.30;;
41661;SDS011;27351;45.992;12.666;2022-09-03T07:12:17;6.70;;;2.40;;
41661;SDS011;27351;45.992;12.666;2022-09-03T07:14:45;3.28;;;1.92;;
41661;SDS011;27351;45.992;12.666;2022-09-03T07:17:10;5.30;;;2.13;;
41661;SDS011;27351;45.992;12.666;2022-09-03T07:19:36;5.10;;;2.10;;
41661;SDS011;27351;45.992;12.666;2022-09-03T07:22:02;6.00;;;2.10;;
41661;SDS011;27351;45.992;12.666;2022-09-03T07:24:27;6.00;;;1.90;;
41661;SDS011;27351;45.992;12.666;2022-09-03T07:26:53;4.50;;;1.90;;
41661;SDS011;27351;45.992;12.666;2022-09-03T07:29:19;3.15;;;1.73;;
41661;SDS011;27351;45.992;12.666;2022-09-03T07:31:45;3.45;;;1.80;;
41661;SDS011;27351;45.992;12.666;2022-09-03T07:34:11;3.17;;;1.50;;
41661;SDS011;27351;45.992;12.666;2022-09-03T07:36:41;4.38;;;1.92;;
41661;SDS011;27351;45.992;12.666;2022-09-03T07:39:07;5.75;;;2.00;;
41661;SDS011;27351;45.992;12.666;2022-09-03T07:41:33;3.88;;;2.00;;
41661;SDS011;27351;45.992;12.666;2022-09-03T07:43:59;5.00;;;2.00;;
41661;SDS011;27351;45.992;12.666;2022-09-03T07:46:31;6.65;;;2.47;;
41661;SDS011;27351;45.992;12.666;2022-09-03T07:48:58;3.83;;;1.67;;
41661;SDS011;27351;45.992;12.666;2022-09-03T07:51:26;2.83;;;1.50;;
41661;SDS011;27351;45.992;12.666;2022-09-03T07:53:53;2.75;;;1.70;;
41661;SDS011;27351;45.992;12.666;2022-09-03T07:56:20;5.65;;;1.80;;
41661;SDS011;27351;45.992;12.666;2022-09-03T07:58:46;4.90;;;1.93;;
41661;SDS011;27351;45.992;12.666;2022-09-03T08:01:16;3.33;;;1.50;;
41661;SDS011;27351;45.992;12.666;2022-09-03T08:03:43;4.07;;;1.70;;
41661;SDS011;27351;45.992;12.666;2022-09-03T08:06:09;3.95;;;1.50;;
41661;SDS011;27351;45.992;12.666;2022-09-03T08:08:35;3.58;;;1.60;;
41661;SDS011;27351;45.992;12.666;2022-09-03T08:11:12;2.55;;;1.60;;
41661;SDS011;27351;45.992;12.666;2022-09-03T08:13:38;3.78;;;1.63;;
41661;SDS011;27351;45.992;12.666;2022-09-03T08:16:05;3.75;;;1.40;;
41661;SDS011;27351;45.992;12.666;2022-09-03T08:18:32;5.22;;;1.85;;
41661;SDS011;27351;45.992;12.666;2022-09-03T08:21:00;6.93;;;1.88;;
41661;SDS011;27351;45.992;12.666;2022-09-03T08:23:26;3.47;;;1.43;;
41661;SDS011;27351;45.992;12.666;2022-09-03T08:25:58;3.85;;;1.70;;
41661;SDS011;27351;45.992;12.666;2022-09-03T08:28:24;4.97;;;1.90;;
41661;SDS011;27351;45.992;12.666;2022-09-03T08:30:50;2.75;;;1.50;;
41661;SDS011;27351;45.992;12.666;2022-09-03T08:33:16;3.90;;;1.50;;
41661;SDS011;27351;45.992;12.666;2022-09-03T08:36:20;5.85;;;2.00;;
41661;SDS011;27351;45.992;12.666;2022-09-03T08:38:49;4.97;;;1.80;;
41661;SDS011;27351;45.992;12.666;2022-09-03T08:41:23;3.55;;;1.58;;
41661;SDS011;27351;45.992;12.666;2022-09-03T08:49:18;4.20;;;1.60;;
41661;SDS011;27351;45.992;12.666;2022-09-03T08:51:45;6.22;;;1.80;;
41661;SDS011;27351;45.992;12.666;2022-09-03T08:54:13;3.90;;;1.67;;
41661;SDS011;27351;45.992;12.666;2022-09-03T08:56:39;4.70;;;2.15;;
41661;SDS011;27351;45.992;12.666;2022-09-03T08:59:06;4.05;;;1.90;;
41661;SDS011;27351;45.992;12.666;2022-09-03T09:01:36;2.95;;;1.50;;
41661;SDS011;27351;45.992;12.666;2022-09-03T09:06:47;2.53;;;1.33;;
41661;SDS011;27351;45.992;12.666;2022-09-03T09:14:38;4.05;;;1.80;;
41661;SDS011;27351;45.992;12.666;2022-09-03T09:17:15;3.42;;;1.40;;
41661;SDS011;27351;45.992;12.666;2022-09-03T09:22:46;3.00;;;1.85;;
41661;SDS011;27351;45.992;12.666;2022-09-03T09:25:16;7.57;;;1.88;;
41661;SDS011;27351;45.992;12.666;2022-09-03T09:27:46;4.97;;;1.50;;
41661;SDS011;27351;45.992;12.666;2022-09-03T09:30:16;3.70;;;1.60;;
41661;SDS011;27351;45.992;12.666;2022-09-03T09:32:42;4.57;;;1.70;;
41661;SDS011;27351;45.992;12.666;2022-09-03T09:35:08;4.00;;;2.07;;
41661;SDS011;27351;45.992;12.666;2022-09-03T09:37:45;3.28;;;1.67;;
41661;SDS011;27351;45.992;12.666;2022-09-03T09:40:11;3.40;;;1.63;;
41661;SDS011;27351;45.992;12.666;2022-09-03T09:42:47;5.07;;;1.58;;
41661;SDS011;27351;45.992;12.666;2022-09-03T09:45:13;4.50;;;1.50;;
41661;SDS011;27351;45.992;12.666;2022-09-03T09:47:38;3.70;;;1.60;;
41661;SDS011;27351;45.992;12.666;2022-09-03T09:50:14;3.97;;;1.50;;
41661;SDS011;27351;45.992;12.666;2022-09-03T09:52:41;4.10;;;1.50;;
41661;SDS011;27351;45.992;12.666;2022-09-03T09:55:09;6.25;;;1.70;;
41661;SDS011;27351;45.992;12.666;2022-09-03T09:57:35;4.80;;;1.50;;
41661;SDS011;27351;45.992;12.666;2022-09-03T10:00:06;4.57;;;1.55;;
41661;SDS011;27351;45.992;12.666;2022-09-03T10:02:37;3.17;;;1.48;;
41661;SDS011;27351;45.992;12.666;2022-09-03T10:05:11;4.25;;;1.60;;
41661;SDS011;27351;45.992;12.666;2022-09-03T10:07:37;2.90;;;1.50;;
41661;SDS011;27351;45.992;12.666;2022-09-03T10:15:32;3.65;;;1.40;;
41661;SDS011;27351;45.992;12.666;2022-09-03T10:18:09;2.42;;;1.45;;
41661;SDS011;27351;45.992;12.666;2022-09-03T10:20:42;3.23;;;1.70;;
41661;SDS011;27351;45.992;12.666;2022-09-03T10:23:15;3.45;;;1.60;;
41661;SDS011;27351;45.992;12.666;2022-09-03T10:25:46;2.20;;;1.20;;
41661;SDS011;27351;45.992;12.666;2022-09-03T10:28:16;3.25;;;1.38;;
41661;SDS011;27351;45.992;12.666;2022-09-03T10:33:32;2.45;;;1.60;;
41661;SDS011;27351;45.992;12.666;2022-09-03T10:36:06;3.13;;;1.60;;
41661;SDS011;27351;45.992;12.666;2022-09-03T10:38:36;3.40;;;1.27;;
41661;SDS011;27351;45.992;12.666;2022-09-03T10:41:13;4.00;;;1.65;;
41661;SDS011;27351;45.992;12.666;2022-09-03T10:43:57;5.22;;;1.45;;
41661;SDS011;27351;45.992;12.666;2022-09-03T10:46:26;4.03;;;1.33;;
41661;SDS011;27351;45.992;12.666;2022-09-03T10:54:12;2.97;;;1.60;;
41661;SDS011;27351;45.992;12.666;2022-09-03T11:11:48;2.30;;;1.40;;
41661;SDS011;27351;45.992;12.666;2022-09-03T11:14:17;4.22;;;1.48;;
41661;SDS011;27351;45.992;12.666;2022-09-03T11:16:53;4.88;;;1.30;;
41661;SDS011;27351;45.992;12.666;2022-09-03T11:19:29;2.72;;;1.40;;
41661;SDS011;27351;45.992;12.666;2022-09-03T11:21:57;3.28;;;1.45;;
41661;SDS011;27351;45.992;12.666;2022-09-03T11:24:24;5.63;;;1.70;;
41661;SDS011;27351;45.992;12.666;2022-09-03T11:32:04;3.25;;;1.42;;
41661;SDS011;27351;45.992;12.666;2022-09-03T11:42:31;2.43;;;1.43;;
41661;SDS011;27351;45.992;12.666;2022-09-03T11:45:19;3.33;;;1.30;;
41661;SDS011;27351;45.992;12.666;2022-09-03T11:47:45;3.20;;;1.30;;
41661;SDS011;27351;45.992;12.666;2022-09-03T11:50:19;2.22;;;1.20;;
41661;SDS011;27351;45.992;12.666;2022-09-03T11:52:48;3.10;;;1.52;;
41661;SDS011;27351;45.992;12.666;2022-09-03T11:55:26;1.98;;;1.15;;
41661;SDS011;27351;45.992;12.666;2022-09-03T11:57:54;2.70;;;1.30;;
41661;SDS011;27351;45.992;12.666;2022-09-03T12:00:20;3.47;;;1.60;;
41661;SDS011;27351;45.992;12.666;2022-09-03T12:02:50;3.28;;;1.58;;
41661;SDS011;27351;45.992;12.666;2022-09-03T12:05:26;3.05;;;1.27;;
41661;SDS011;27351;45.992;12.666;2022-09-03T12:15:45;4.82;;;1.60;;
41661;SDS011;27351;45.992;12.666;2022-09-03T12:23:28;2.65;;;1.40;;
41661;SDS011;27351;45.992;12.666;2022-09-03T12:25:56;2.60;;;1.40;;
41661;SDS011;27351;45.992;12.666;2022-09-03T12:28:23;2.45;;;1.30;;
41661;SDS011;27351;45.992;12.666;2022-09-03T12:30:49;4.07;;;1.23;;
41661;SDS011;27351;45.992;12.666;2022-09-03T12:33:18;2.25;;;1.40;;
41661;SDS011;27351;45.992;12.666;2022-09-03T12:35:54;2.67;;;1.40;;
41661;SDS011;27351;45.992;12.666;2022-09-03T12:38:23;3.67;;;1.55;;
41661;SDS011;27351;45.992;12.666;2022-09-03T12:40:50;3.25;;;1.42;;
41661;SDS011;27351;45.992;12.666;2022-09-03T12:43:16;2.17;;;1.30;;
41661;SDS011;27351;45.992;12.666;2022-09-03T12:45:43;3.92;;;1.40;;
41661;SDS011;27351;45.992;12.666;2022-09-03T12:48:13;3.22;;;1.40;;
41661;SDS011;27351;45.992;12.666;2022-09-03T12:50:40;2.50;;;1.40;;
41661;SDS011;27351;45.992;12.666;2022-09-03T12:53:05;2.95;;;1.38;;
41661;SDS011;27351;45.992;12.666;2022-09-03T12:55:37;3.03;;;1.50;;
41661;SDS011;27351;45.992;12.666;2022-09-03T13:00:37;6.10;;;2.20;;
41661;SDS011;27351;45.992;12.666;2022-09-03T13:03:09;3.83;;;1.38;;
41661;SDS011;27351;45.992;12.666;2022-09-03T13:05:44;2.15;;;1.25;;
41661;SDS011;27351;45.992;12.666;2022-09-03T13:08:32;4.45;;;1.35;;
41661;SDS011;27351;45.992;12.666;2022-09-03T13:11:00;3.53;;;1.60;;
41661;SDS011;27351;45.992;12.666;2022-09-03T13:13:33;3.47;;;1.40;;
41661;SDS011;27351;45.992;12.666;2022-09-03T13:18:41;3.43;;;1.40;;
41661;SDS011;27351;45.992;12.666;2022-09-03T13:21:31;4.00;;;1.33;;
41661;SDS011;27351;45.992;12.666;2022-09-03T13:24:04;2.70;;;1.58;;
41661;SDS011;27351;45.992;12.666;2022-09-03T13:29:04;2.97;;;1.57;;
41661;SDS011;27351;45.992;12.666;2022-09-03T13:31:40;3.67;;;1.60;;
41661;SDS011;27351;45.992;12.666;2022-09-03T13:34:08;3.90;;;1.38;;
41661;SDS011;27351;45.992;12.666;2022-09-03T13:36:40;3.22;;;1.50;;
41661;SDS011;27351;45.992;12.666;2022-09-03T13:47:17;2.83;;;1.60;;
41661;SDS011;27351;45.992;12.666;2022-09-03T13:49:55;1.77;;;1.27;;
41661;SDS011;27351;45.992;12.666;2022-09-03T13:52:46;3.72;;;1.52;;
41661;SDS011;27351;45.992;12.666;2022-09-03T13:55:19;2.97;;;1.70;;
41661;SDS011;27351;45.992;12.666;2022-09-03T14:00:13;3.72;;;1.60;;
41661;SDS011;27351;45.992;12.666;2022-09-03T14:05:14;4.70;;;1.58;;
41661;SDS011;27351;45.992;12.666;2022-09-03T14:10:23;5.72;;;1.48;;
41661;SDS011;27351;45.992;12.666;2022-09-03T14:13:05;4.05;;;1.65;;
41661;SDS011;27351;45.992;12.666;2022-09-03T14:15:48;2.95;;;1.45;;
41661;SDS011;27351;45.992;12.666;2022-09-03T14:20:56;2.27;;;1.33;;
41661;SDS011;27351;45.992;12.666;2022-09-03T14:25:51;2.80;;;1.38;;
41661;SDS011;27351;45.992;12.666;2022-09-03T14:28:36;2.75;;;1.70;;
41661;SDS011;27351;45.992;12.666;2022-09-03T14:33:47;3.33;;;1.40;;
41661;SDS011;27351;45.992;12.666;2022-09-03T14:36:25;2.30;;;1.27;;
41661;SDS011;27351;45.992;12.666;2022-09-03T14:49:11;2.72;;;1.40;;
41661;SDS011;27351;45.992;12.666;2022-09-03T15:05:03;2.40;;;1.45;;
41661;SDS011;27351;45.992;12.666;2022-09-03T15:07:35;2.23;;;1.27;;
41661;SDS011;27351;45.992;12.666;2022-09-03T15:10:16;2.63;;;1.40;;
41661;SDS011;27351;45.992;12.666;2022-09-03T15:15:48;3.33;;;1.58;;
41661;SDS011;27351;45.992;12.666;2022-09-03T15:20:47;3.10;;;1.60;;
41661;SDS011;27351;45.992;12.666;2022-09-03T15:26:14;4.32;;;1.45;;
41661;SDS011;27351;45.992;12.666;2022-09-03T15:33:58;2.63;;;1.20;;
41661;SDS011;27351;45.992;12.666;2022-09-03T15:36:27;3.50;;;1.52;;
41661;SDS011;27351;45.992;12.666;2022-09-03T15:39:09;3.20;;;1.52;;
41661;SDS011;27351;45.992;12.666;2022-09-03T15:41:43;2.78;;;1.40;;
41661;SDS011;27351;45.992;12.666;2022-09-03T15:44:11;5.63;;;1.55;;
41661;SDS011;27351;45.992;12.666;2022-09-03T15:49:18;3.43;;;1.60;;
41661;SDS011;27351;45.992;12.666;2022-09-03T15:52:25;2.30;;;1.33;;
41661;SDS011;27351;45.992;12.666;2022-09-03T15:54:45;2.65;;;1.48;;
41661;SDS011;27351;45.992;12.666;2022-09-03T15:57:16;3.03;;;1.40;;
41661;SDS011;27351;45.992;12.666;2022-09-03T16:02:16;3.70;;;1.60;;
41661;SDS011;27351;45.992;12.666;2022-09-03T16:04:55;2.45;;;1.38;;
41661;SDS011;27351;45.992;12.666;2022-09-03T16:15:19;3.00;;;1.50;;
41661;SDS011;27351;45.992;12.666;2022-09-03T16:18:05;2.60;;;1.50;;
41661;SDS011;27351;45.992;12.666;2022-09-03T16:20:43;4.80;;;1.88;;
41661;SDS011;27351;45.992;12.666;2022-09-03T16:25:59;3.17;;;1.52;;
41661;SDS011;27351;45.992;12.666;2022-09-03T16:28:31;4.85;;;1.95;;
41661;SDS011;27351;45.992;12.666;2022-09-03T16:31:02;3.30;;;1.67;;
41661;SDS011;27351;45.992;12.666;2022-09-03T16:33:36;2.43;;;1.40;;
41661;SDS011;27351;45.992;12.666;2022-09-03T16:38:56;4.30;;;1.48;;
41661;SDS011;27351;45.992;12.666;2022-09-03T16:46:50;2.42;;;1.60;;
41661;SDS011;27351;45.992;12.666;2022-09-03T17:02:38;4.13;;;1.77;;
41661;SDS011;27351;45.992;12.666;2022-09-03T17:12:56;2.92;;;1.50;;
41661;SDS011;27351;45.992;12.666;2022-09-03T17:15:29;3.10;;;1.50;;
41661;SDS011;27351;45.992;12.666;2022-09-03T17:18:07;2.75;;;1.25;;
41661;SDS011;27351;45.992;12.666;2022-09-03T17:20:59;3.35;;;1.70;;
41661;SDS011;27351;45.992;12.666;2022-09-03T17:26:03;3.57;;;1.60;;
41661;SDS011;27351;45.992;12.666;2022-09-03T17:28:39;3.70;;;1.60;;
41661;SDS011;27351;45.992;12.666;2022-09-03T17:33:41;2.72;;;1.55;;
41661;SDS011;27351;45.992;12.666;2022-09-03T17:36:17;5.45;;;1.80;;
41661;SDS011;27351;45.992;12.666;2022-09-03T17:44:00;6.10;;;2.13;;
41661;SDS011;27351;45.992;12.666;2022-09-03T17:48:54;3.90;;;1.80;;
41661;SDS011;27351;45.992;12.666;2022-09-03T17:53:47;4.80;;;2.27;;
41661;SDS011;27351;45.992;12.666;2022-09-03T17:56:19;5.43;;;2.20;;
41661;SDS011;27351;45.992;12.666;2022-09-03T17:59:04;3.08;;;1.70;;
41661;SDS011;27351;45.992;12.666;2022-09-03T18:01:34;5.20;;;1.98;;
41661;SDS011;27351;45.992;12.666;2022-09-03T18:04:01;4.22;;;1.70;;
41661;SDS011;27351;45.992;12.666;2022-09-03T18:09:29;4.00;;;2.25;;
41661;SDS011;27351;45.992;12.666;2022-09-03T18:12:08;4.17;;;2.00;;
41661;SDS011;27351;45.992;12.666;2022-09-03T18:14:43;4.95;;;2.10;;
41661;SDS011;27351;45.992;12.666;2022-09-03T18:17:19;4.97;;;2.10;;
41661;SDS011;27351;45.992;12.666;2022-09-03T18:19:59;3.00;;;1.67;;
41661;SDS011;27351;45.992;12.666;2022-09-03T18:22:49;4.40;;;1.80;;
41661;SDS011;27351;45.992;12.666;2022-09-03T18:25:35;4.28;;;2.00;;
41661;SDS011;27351;45.992;12.666;2022-09-03T18:28:28;5.05;;;1.92;;
41661;SDS011;27351;45.992;12.666;2022-09-03T18:31:12;4.95;;;2.20;;
41661;SDS011;27351;45.992;12.666;2022-09-03T18:34:01;2.75;;;1.67;;
41661;SDS011;27351;45.992;12.666;2022-09-03T18:36:45;3.60;;;1.67;;
41661;SDS011;27351;45.992;12.666;2022-09-03T18:39:29;4.40;;;1.92;;
41661;SDS011;27351;45.992;12.666;2022-09-03T18:42:18;3.47;;;1.90;;
41661;SDS011;27351;45.992;12.666;2022-09-03T18:54:35;3.05;;;1.60;;
41661;SDS011;27351;45.992;12.666;2022-09-03T18:56:51;3.42;;;1.83;;
41661;SDS011;27351;45.992;12.666;2022-09-03T19:02:26;2.90;;;1.60;;
41661;SDS011;27351;45.992;12.666;2022-09-03T19:05:22;2.92;;;1.63;;
41661;SDS011;27351;45.992;12.666;2022-09-03T19:08:20;5.63;;;2.00;;
41661;SDS011;27351;45.992;12.666;2022-09-03T19:11:18;4.55;;;2.15;;
41661;SDS011;27351;45.992;12.666;2022-09-03T19:14:06;4.00;;;1.83;;
41661;SDS011;27351;45.992;12.666;2022-09-03T19:16:53;3.40;;;1.90;;
41661;SDS011;27351;45.992;12.666;2022-09-03T19:19:44;4.22;;;1.98;;
41661;SDS011;27351;45.992;12.666;2022-09-03T19:25:14;4.22;;;2.00;;
41661;SDS011;27351;45.992;12.666;2022-09-03T19:28:02;4.50;;;2.15;;
41661;SDS011;27351;45.992;12.666;2022-09-03T19:36:47;4.47;;;2.22;;